sensor_id;sensor_type;location;lat;lon;timestamp;P1;durP1;ratioP1;P2;durP2;ratioP2
20456;SDS011;10387;51.102;6.848;2023-04-25T00:00:30;10.83;;;6.00;;
20456;SDS011;10387;51.102;6.848;2023-04-25T00:02:56;14.50;;;6.77;;
20456;SDS011;10387;51.102;6.848;2023-04-25T00:05:25;14.13;;;6.90;;
20456;SDS011;10387;51.102;6.848;2023-04-25T00:07:51;9.23;;;6.37;;
20456;SDS011;10387;51.102;6.848;2023-04-25T00:10:17;10.53;;;6.20;;
20456;SDS011;10387;51.102;6.848;2023-04-25T00:12:43;8.67;;;5.83;;
20456;SDS011;10387;51.102;6.848;2023-04-25T00:15:09;13.50;;;7.00;;
20456;SDS011;10387;51.102;6.848;2023-04-25T00:17:36;12.23;;;6.03;;
20456;SDS011;10387;51.102;6.848;2023-04-25T00:20:03;13.27;;;7.03;;
20456;SDS011;10387;51.102;6.848;2023-04-25T00:22:30;11.30;;;6.77;;
20456;SDS011;10387;51.102;6.848;2023-04-25T00:24:56;11.10;;;7.00;;
20456;SDS011;10387;51.102;6.848;2023-04-25T00:27:25;12.53;;;6.13;;
20456;SDS011;10387;51.102;6.848;2023-04-25T00:29:52;11.13;;;6.90;;
20456;SDS011;10387;51.102;6.848;2023-04-25T00:32:18;11.90;;;6.50;;
20456;SDS011;10387;51.102;6.848;2023-04-25T00:34:44;13.73;;;6.70;;
20456;SDS011;10387;51.102;6.848;2023-04-25T00:37:11;11.87;;;6.27;;
20456;SDS011;10387;51.102;6.848;2023-04-25T00:39:37;12.33;;;6.30;;
20456;SDS011;10387;51.102;6.848;2023-04-25T00:42:03;12.93;;;6.20;;
20456;SDS011;10387;51.102;6.848;2023-04-25T00:44:30;12.40;;;6.43;;
20456;SDS011;10387;51.102;6.848;2023-04-25T00:46:57;10.40;;;5.97;;
20456;SDS011;10387;51.102;6.848;2023-04-25T00:49:23;12.90;;;6.47;;
20456;SDS011;10387;51.102;6.848;2023-04-25T00:51:49;12.73;;;6.70;;
20456;SDS011;10387;51.102;6.848;2023-04-25T00:54:15;11.37;;;6.03;;
20456;SDS011;10387;51.102;6.848;2023-04-25T00:56:43;12.43;;;7.00;;
20456;SDS011;10387;51.102;6.848;2023-04-25T00:59:10;12.03;;;6.40;;
20456;SDS011;10387;51.102;6.848;2023-04-25T01:01:38;12.17;;;6.30;;
20456;SDS011;10387;51.102;6.848;2023-04-25T01:04:04;12.20;;;6.57;;
20456;SDS011;10387;51.102;6.848;2023-04-25T01:06:44;16.53;;;6.87;;
20456;SDS011;10387;51.102;6.848;2023-04-25T01:09:11;12.87;;;7.00;;
20456;SDS011;10387;51.102;6.848;2023-04-25T01:11:38;11.70;;;6.47;;
20456;SDS011;10387;51.102;6.848;2023-04-25T01:14:05;11.10;;;6.57;;
20456;SDS011;10387;51.102;6.848;2023-04-25T01:16:31;12.43;;;6.27;;
20456;SDS011;10387;51.102;6.848;2023-04-25T01:18:58;14.13;;;6.23;;
20456;SDS011;10387;51.102;6.848;2023-04-25T01:21:24;12.57;;;6.50;;
20456;SDS011;10387;51.102;6.848;2023-04-25T01:23:53;13.80;;;6.37;;
20456;SDS011;10387;51.102;6.848;2023-04-25T01:26:19;17.20;;;6.10;;
20456;SDS011;10387;51.102;6.848;2023-04-25T01:28:46;11.17;;;6.43;;
20456;SDS011;10387;51.102;6.848;2023-04-25T01:31:12;11.30;;;6.03;;
20456;SDS011;10387;51.102;6.848;2023-04-25T01:33:40;16.67;;;6.33;;
20456;SDS011;10387;51.102;6.848;2023-04-25T01:36:06;15.13;;;6.60;;
20456;SDS011;10387;51.102;6.848;2023-04-25T01:38:34;12.17;;;6.13;;
20456;SDS011;10387;51.102;6.848;2023-04-25T01:41:00;14.43;;;6.40;;
20456;SDS011;10387;51.102;6.848;2023-04-25T01:43:27;15.17;;;7.40;;
20456;SDS011;10387;51.102;6.848;2023-04-25T01:45:53;11.50;;;5.83;;
20456;SDS011;10387;51.102;6.848;2023-04-25T01:48:19;13.73;;;6.13;;
20456;SDS011;10387;51.102;6.848;2023-04-25T01:50:46;11.00;;;6.23;;
20456;SDS011;10387;51.102;6.848;2023-04-25T01:53:12;15.47;;;5.97;;
20456;SDS011;10387;51.102;6.848;2023-04-25T01:55:41;11.43;;;6.03;;
20456;SDS011;10387;51.102;6.848;2023-04-25T01:58:10;8.43;;;5.67;;
20456;SDS011;10387;51.102;6.848;2023-04-25T02:01:10;12.37;;;5.70;;
20456;SDS011;10387;51.102;6.848;2023-04-25T02:03:43;14.67;;;6.20;;
20456;SDS011;10387;51.102;6.848;2023-04-25T02:06:17;8.57;;;5.33;;
20456;SDS011;10387;51.102;6.848;2023-04-25T02:08:45;11.63;;;5.60;;
20456;SDS011;10387;51.102;6.848;2023-04-25T02:11:12;12.37;;;5.63;;
20456;SDS011;10387;51.102;6.848;2023-04-25T02:13:45;10.23;;;6.07;;
20456;SDS011;10387;51.102;6.848;2023-04-25T02:16:17;12.70;;;6.83;;
20456;SDS011;10387;51.102;6.848;2023-04-25T02:18:44;11.87;;;6.10;;
20456;SDS011;10387;51.102;6.848;2023-04-25T02:21:10;9.07;;;5.00;;
20456;SDS011;10387;51.102;6.848;2023-04-25T02:23:37;10.07;;;5.53;;
20456;SDS011;10387;51.102;6.848;2023-04-25T02:26:03;14.53;;;5.77;;
20456;SDS011;10387;51.102;6.848;2023-04-25T02:28:29;8.63;;;4.87;;
20456;SDS011;10387;51.102;6.848;2023-04-25T02:30:56;7.73;;;5.50;;
20456;SDS011;10387;51.102;6.848;2023-04-25T02:33:23;11.60;;;5.57;;
20456;SDS011;10387;51.102;6.848;2023-04-25T02:35:49;9.17;;;5.53;;
20456;SDS011;10387;51.102;6.848;2023-04-25T02:38:15;10.37;;;5.47;;
20456;SDS011;10387;51.102;6.848;2023-04-25T02:40:41;10.17;;;5.90;;
20456;SDS011;10387;51.102;6.848;2023-04-25T02:43:07;9.13;;;5.60;;
20456;SDS011;10387;51.102;6.848;2023-04-25T02:45:33;11.43;;;5.40;;
20456;SDS011;10387;51.102;6.848;2023-04-25T02:48:00;10.27;;;5.63;;
20456;SDS011;10387;51.102;6.848;2023-04-25T02:50:26;10.43;;;4.90;;
20456;SDS011;10387;51.102;6.848;2023-04-25T02:52:52;11.80;;;5.20;;
20456;SDS011;10387;51.102;6.848;2023-04-25T02:55:24;7.43;;;4.73;;
20456;SDS011;10387;51.102;6.848;2023-04-25T02:57:51;8.80;;;4.67;;
20456;SDS011;10387;51.102;6.848;2023-04-25T03:00:28;8.50;;;5.23;;
20456;SDS011;10387;51.102;6.848;2023-04-25T03:02:55;9.87;;;5.30;;
20456;SDS011;10387;51.102;6.848;2023-04-25T03:05:21;10.17;;;5.03;;
20456;SDS011;10387;51.102;6.848;2023-04-25T03:07:47;8.33;;;5.53;;
20456;SDS011;10387;51.102;6.848;2023-04-25T03:10:15;10.37;;;5.87;;
20456;SDS011;10387;51.102;6.848;2023-04-25T03:12:41;10.73;;;5.50;;
20456;SDS011;10387;51.102;6.848;2023-04-25T03:15:07;7.27;;;4.90;;
20456;SDS011;10387;51.102;6.848;2023-04-25T03:17:33;8.40;;;4.97;;
20456;SDS011;10387;51.102;6.848;2023-04-25T03:19:59;8.00;;;4.90;;
20456;SDS011;10387;51.102;6.848;2023-04-25T03:22:27;9.50;;;5.27;;
20456;SDS011;10387;51.102;6.848;2023-04-25T03:24:53;8.20;;;5.40;;
20456;SDS011;10387;51.102;6.848;2023-04-25T03:27:19;9.53;;;5.03;;
20456;SDS011;10387;51.102;6.848;2023-04-25T03:29:45;10.10;;;5.53;;
20456;SDS011;10387;51.102;6.848;2023-04-25T03:32:12;9.33;;;5.77;;
20456;SDS011;10387;51.102;6.848;2023-04-25T03:34:38;10.03;;;5.83;;
20456;SDS011;10387;51.102;6.848;2023-04-25T03:37:05;9.80;;;5.33;;
20456;SDS011;10387;51.102;6.848;2023-04-25T03:39:36;9.53;;;5.80;;
20456;SDS011;10387;51.102;6.848;2023-04-25T03:42:02;9.17;;;5.80;;
20456;SDS011;10387;51.102;6.848;2023-04-25T03:44:29;9.63;;;6.00;;
20456;SDS011;10387;51.102;6.848;2023-04-25T03:46:55;13.63;;;6.60;;
20456;SDS011;10387;51.102;6.848;2023-04-25T03:49:22;13.50;;;6.53;;
20456;SDS011;10387;51.102;6.848;2023-04-25T03:51:56;11.73;;;6.30;;
20456;SDS011;10387;51.102;6.848;2023-04-25T03:54:23;10.10;;;5.77;;
20456;SDS011;10387;51.102;6.848;2023-04-25T03:56:54;13.03;;;6.50;;
20456;SDS011;10387;51.102;6.848;2023-04-25T03:59:23;10.53;;;6.43;;
20456;SDS011;10387;51.102;6.848;2023-04-25T04:01:50;11.93;;;6.60;;
20456;SDS011;10387;51.102;6.848;2023-04-25T04:04:16;14.93;;;6.63;;
20456;SDS011;10387;51.102;6.848;2023-04-25T04:06:43;11.83;;;7.10;;
20456;SDS011;10387;51.102;6.848;2023-04-25T04:09:17;11.73;;;6.63;;
20456;SDS011;10387;51.102;6.848;2023-04-25T04:11:45;11.70;;;6.77;;
20456;SDS011;10387;51.102;6.848;2023-04-25T04:14:11;16.17;;;6.90;;
20456;SDS011;10387;51.102;6.848;2023-04-25T04:16:42;13.73;;;7.10;;
20456;SDS011;10387;51.102;6.848;2023-04-25T04:19:08;13.57;;;7.30;;
20456;SDS011;10387;51.102;6.848;2023-04-25T04:21:35;17.00;;;7.60;;
20456;SDS011;10387;51.102;6.848;2023-04-25T04:24:02;15.73;;;7.27;;
20456;SDS011;10387;51.102;6.848;2023-04-25T04:26:35;12.10;;;6.30;;
20456;SDS011;10387;51.102;6.848;2023-04-25T04:29:22;13.43;;;6.80;;
20456;SDS011;10387;51.102;6.848;2023-04-25T04:31:57;15.77;;;6.73;;
20456;SDS011;10387;51.102;6.848;2023-04-25T04:34:23;15.93;;;6.97;;
20456;SDS011;10387;51.102;6.848;2023-04-25T04:36:51;15.87;;;7.23;;
20456;SDS011;10387;51.102;6.848;2023-04-25T04:39:18;12.97;;;6.83;;
20456;SDS011;10387;51.102;6.848;2023-04-25T04:41:58;12.87;;;6.60;;
20456;SDS011;10387;51.102;6.848;2023-04-25T04:44:37;13.10;;;7.33;;
20456;SDS011;10387;51.102;6.848;2023-04-25T04:47:36;14.23;;;7.13;;
20456;SDS011;10387;51.102;6.848;2023-04-25T04:50:33;11.70;;;6.77;;
20456;SDS011;10387;51.102;6.848;2023-04-25T04:53:22;14.00;;;6.57;;
20456;SDS011;10387;51.102;6.848;2023-04-25T04:55:54;10.47;;;6.00;;
20456;SDS011;10387;51.102;6.848;2023-04-25T04:58:43;13.20;;;7.00;;
20456;SDS011;10387;51.102;6.848;2023-04-25T05:01:32;14.20;;;6.60;;
20456;SDS011;10387;51.102;6.848;2023-04-25T05:04:17;12.37;;;7.20;;
20456;SDS011;10387;51.102;6.848;2023-04-25T05:07:06;13.97;;;6.27;;
20456;SDS011;10387;51.102;6.848;2023-04-25T05:09:44;14.67;;;6.83;;
20456;SDS011;10387;51.102;6.848;2023-04-25T05:12:45;13.17;;;6.17;;
20456;SDS011;10387;51.102;6.848;2023-04-25T05:15:34;18.03;;;7.00;;
20456;SDS011;10387;51.102;6.848;2023-04-25T05:18:17;15.43;;;6.30;;
20456;SDS011;10387;51.102;6.848;2023-04-25T05:20:46;10.87;;;6.00;;
20456;SDS011;10387;51.102;6.848;2023-04-25T05:23:24;14.63;;;6.97;;
20456;SDS011;10387;51.102;6.848;2023-04-25T05:26:20;12.73;;;6.87;;
20456;SDS011;10387;51.102;6.848;2023-04-25T05:28:59;15.83;;;6.80;;
20456;SDS011;10387;51.102;6.848;2023-04-25T05:31:55;11.77;;;6.50;;
20456;SDS011;10387;51.102;6.848;2023-04-25T05:34:21;13.17;;;6.80;;
20456;SDS011;10387;51.102;6.848;2023-04-25T05:36:59;15.63;;;6.67;;
20456;SDS011;10387;51.102;6.848;2023-04-25T05:39:26;13.73;;;6.37;;
20456;SDS011;10387;51.102;6.848;2023-04-25T05:42:15;14.57;;;6.90;;
20456;SDS011;10387;51.102;6.848;2023-04-25T05:44:47;13.10;;;6.67;;
20456;SDS011;10387;51.102;6.848;2023-04-25T05:47:21;17.47;;;7.03;;
20456;SDS011;10387;51.102;6.848;2023-04-25T05:50:08;17.50;;;6.80;;
20456;SDS011;10387;51.102;6.848;2023-04-25T05:52:55;14.33;;;7.63;;
20456;SDS011;10387;51.102;6.848;2023-04-25T05:55:29;19.17;;;7.07;;
20456;SDS011;10387;51.102;6.848;2023-04-25T05:57:57;15.90;;;5.80;;
20456;SDS011;10387;51.102;6.848;2023-04-25T06:00:23;12.03;;;6.00;;
20456;SDS011;10387;51.102;6.848;2023-04-25T06:02:49;14.07;;;6.20;;
20456;SDS011;10387;51.102;6.848;2023-04-25T06:05:16;12.50;;;5.77;;
20456;SDS011;10387;51.102;6.848;2023-04-25T06:07:44;15.40;;;6.23;;
20456;SDS011;10387;51.102;6.848;2023-04-25T06:10:10;14.40;;;6.73;;
20456;SDS011;10387;51.102;6.848;2023-04-25T06:12:37;13.10;;;6.03;;
20456;SDS011;10387;51.102;6.848;2023-04-25T06:15:04;13.53;;;6.07;;
20456;SDS011;10387;51.102;6.848;2023-04-25T06:17:30;12.37;;;6.27;;
20456;SDS011;10387;51.102;6.848;2023-04-25T06:19:57;13.27;;;5.73;;
20456;SDS011;10387;51.102;6.848;2023-04-25T06:22:23;9.67;;;5.57;;
20456;SDS011;10387;51.102;6.848;2023-04-25T06:24:49;13.60;;;6.00;;
20456;SDS011;10387;51.102;6.848;2023-04-25T06:27:15;13.17;;;5.53;;
20456;SDS011;10387;51.102;6.848;2023-04-25T06:29:41;15.40;;;5.87;;
20456;SDS011;10387;51.102;6.848;2023-04-25T06:32:08;10.10;;;5.40;;
20456;SDS011;10387;51.102;6.848;2023-04-25T06:34:34;10.50;;;5.40;;
20456;SDS011;10387;51.102;6.848;2023-04-25T06:37:00;12.27;;;5.47;;
20456;SDS011;10387;51.102;6.848;2023-04-25T06:39:27;13.63;;;6.17;;
20456;SDS011;10387;51.102;6.848;2023-04-25T06:41:54;11.30;;;5.57;;
20456;SDS011;10387;51.102;6.848;2023-04-25T06:44:44;15.10;;;6.27;;
20456;SDS011;10387;51.102;6.848;2023-04-25T06:47:12;15.17;;;6.40;;
20456;SDS011;10387;51.102;6.848;2023-04-25T06:49:40;12.07;;;5.77;;
20456;SDS011;10387;51.102;6.848;2023-04-25T06:52:07;9.43;;;5.50;;
20456;SDS011;10387;51.102;6.848;2023-04-25T06:54:34;9.43;;;5.27;;
20456;SDS011;10387;51.102;6.848;2023-04-25T06:57:08;16.50;;;6.90;;
20456;SDS011;10387;51.102;6.848;2023-04-25T06:59:34;12.90;;;6.13;;
20456;SDS011;10387;51.102;6.848;2023-04-25T07:02:01;12.80;;;6.17;;
20456;SDS011;10387;51.102;6.848;2023-04-25T07:04:28;9.03;;;5.50;;
20456;SDS011;10387;51.102;6.848;2023-04-25T07:06:57;12.80;;;5.73;;
20456;SDS011;10387;51.102;6.848;2023-04-25T07:09:33;11.80;;;5.07;;
20456;SDS011;10387;51.102;6.848;2023-04-25T07:12:00;13.30;;;5.20;;
20456;SDS011;10387;51.102;6.848;2023-04-25T07:14:27;9.40;;;4.13;;
20456;SDS011;10387;51.102;6.848;2023-04-25T07:16:53;10.67;;;4.43;;
20456;SDS011;10387;51.102;6.848;2023-04-25T07:19:22;7.27;;;4.33;;
20456;SDS011;10387;51.102;6.848;2023-04-25T07:21:52;8.50;;;4.50;;
20456;SDS011;10387;51.102;6.848;2023-04-25T07:24:18;8.63;;;3.97;;
20456;SDS011;10387;51.102;6.848;2023-04-25T07:26:46;9.87;;;4.13;;
20456;SDS011;10387;51.102;6.848;2023-04-25T07:29:22;8.03;;;4.23;;
20456;SDS011;10387;51.102;6.848;2023-04-25T07:31:48;9.77;;;4.10;;
20456;SDS011;10387;51.102;6.848;2023-04-25T07:34:14;10.37;;;3.70;;
20456;SDS011;10387;51.102;6.848;2023-04-25T07:36:41;10.40;;;3.83;;
20456;SDS011;10387;51.102;6.848;2023-04-25T07:39:07;8.97;;;3.73;;
20456;SDS011;10387;51.102;6.848;2023-04-25T07:41:35;7.67;;;3.67;;
20456;SDS011;10387;51.102;6.848;2023-04-25T07:44:01;9.60;;;3.80;;
20456;SDS011;10387;51.102;6.848;2023-04-25T07:46:29;8.93;;;3.50;;
20456;SDS011;10387;51.102;6.848;2023-04-25T07:48:55;8.57;;;3.33;;
20456;SDS011;10387;51.102;6.848;2023-04-25T07:51:21;8.53;;;4.10;;
20456;SDS011;10387;51.102;6.848;2023-04-25T07:53:49;10.23;;;4.03;;
20456;SDS011;10387;51.102;6.848;2023-04-25T07:56:15;7.73;;;3.37;;
20456;SDS011;10387;51.102;6.848;2023-04-25T07:58:44;8.63;;;3.80;;
20456;SDS011;10387;51.102;6.848;2023-04-25T08:01:13;9.17;;;4.27;;
20456;SDS011;10387;51.102;6.848;2023-04-25T08:03:46;13.17;;;4.00;;
20456;SDS011;10387;51.102;6.848;2023-04-25T08:06:19;8.67;;;4.13;;
20456;SDS011;10387;51.102;6.848;2023-04-25T08:09:03;9.77;;;4.70;;
20456;SDS011;10387;51.102;6.848;2023-04-25T08:11:35;10.03;;;4.90;;
20456;SDS011;10387;51.102;6.848;2023-04-25T08:14:02;8.70;;;4.70;;
20456;SDS011;10387;51.102;6.848;2023-04-25T08:16:28;11.97;;;5.17;;
20456;SDS011;10387;51.102;6.848;2023-04-25T08:18:56;12.60;;;5.17;;
20456;SDS011;10387;51.102;6.848;2023-04-25T08:21:22;10.33;;;4.93;;
20456;SDS011;10387;51.102;6.848;2023-04-25T08:23:48;8.07;;;5.13;;
20456;SDS011;10387;51.102;6.848;2023-04-25T08:26:23;9.00;;;4.50;;
20456;SDS011;10387;51.102;6.848;2023-04-25T08:28:50;11.00;;;4.73;;
20456;SDS011;10387;51.102;6.848;2023-04-25T08:31:16;11.33;;;4.20;;
20456;SDS011;10387;51.102;6.848;2023-04-25T08:33:51;8.53;;;4.43;;
20456;SDS011;10387;51.102;6.848;2023-04-25T08:36:25;7.93;;;4.23;;
20456;SDS011;10387;51.102;6.848;2023-04-25T08:38:53;9.47;;;3.93;;
20456;SDS011;10387;51.102;6.848;2023-04-25T08:41:20;7.93;;;3.80;;
20456;SDS011;10387;51.102;6.848;2023-04-25T08:43:48;6.87;;;3.97;;
20456;SDS011;10387;51.102;6.848;2023-04-25T08:46:15;6.30;;;3.30;;
20456;SDS011;10387;51.102;6.848;2023-04-25T08:48:56;7.10;;;3.33;;
20456;SDS011;10387;51.102;6.848;2023-04-25T08:51:24;10.17;;;4.03;;
20456;SDS011;10387;51.102;6.848;2023-04-25T08:53:53;10.30;;;3.73;;
20456;SDS011;10387;51.102;6.848;2023-04-25T08:56:19;9.20;;;3.70;;
20456;SDS011;10387;51.102;6.848;2023-04-25T08:58:48;9.70;;;3.83;;
20456;SDS011;10387;51.102;6.848;2023-04-25T09:01:17;8.70;;;3.60;;
20456;SDS011;10387;51.102;6.848;2023-04-25T09:03:49;10.03;;;3.37;;
20456;SDS011;10387;51.102;6.848;2023-04-25T09:06:17;6.13;;;3.27;;
20456;SDS011;10387;51.102;6.848;2023-04-25T09:08:43;9.40;;;3.70;;
20456;SDS011;10387;51.102;6.848;2023-04-25T09:11:09;8.83;;;3.50;;
20456;SDS011;10387;51.102;6.848;2023-04-25T09:13:36;5.80;;;3.13;;
20456;SDS011;10387;51.102;6.848;2023-04-25T09:16:20;5.63;;;3.33;;
20456;SDS011;10387;51.102;6.848;2023-04-25T09:19:20;6.53;;;2.90;;
20456;SDS011;10387;51.102;6.848;2023-04-25T09:21:48;6.77;;;2.83;;
20456;SDS011;10387;51.102;6.848;2023-04-25T09:24:14;7.67;;;3.07;;
20456;SDS011;10387;51.102;6.848;2023-04-25T09:26:41;6.83;;;2.37;;
20456;SDS011;10387;51.102;6.848;2023-04-25T09:29:08;4.70;;;2.80;;
20456;SDS011;10387;51.102;6.848;2023-04-25T09:31:40;7.37;;;3.27;;
20456;SDS011;10387;51.102;6.848;2023-04-25T09:34:08;4.33;;;2.40;;
20456;SDS011;10387;51.102;6.848;2023-04-25T09:36:43;6.67;;;2.37;;
20456;SDS011;10387;51.102;6.848;2023-04-25T09:39:32;7.47;;;2.60;;
20456;SDS011;10387;51.102;6.848;2023-04-25T09:42:06;6.60;;;2.57;;
20456;SDS011;10387;51.102;6.848;2023-04-25T09:44:35;6.17;;;2.53;;
20456;SDS011;10387;51.102;6.848;2023-04-25T09:47:01;6.00;;;2.33;;
20456;SDS011;10387;51.102;6.848;2023-04-25T09:49:29;5.13;;;2.33;;
20456;SDS011;10387;51.102;6.848;2023-04-25T09:52:01;6.53;;;2.60;;
20456;SDS011;10387;51.102;6.848;2023-04-25T09:54:34;6.17;;;2.67;;
20456;SDS011;10387;51.102;6.848;2023-04-25T09:59:48;6.13;;;2.77;;
20456;SDS011;10387;51.102;6.848;2023-04-25T10:02:15;3.57;;;2.20;;
20456;SDS011;10387;51.102;6.848;2023-04-25T10:04:43;6.80;;;2.80;;
20456;SDS011;10387;51.102;6.848;2023-04-25T10:07:28;5.87;;;2.50;;
20456;SDS011;10387;51.102;6.848;2023-04-25T10:09:59;6.43;;;2.70;;
20456;SDS011;10387;51.102;6.848;2023-04-25T10:12:26;4.50;;;2.70;;
20456;SDS011;10387;51.102;6.848;2023-04-25T10:14:53;7.50;;;2.40;;
20456;SDS011;10387;51.102;6.848;2023-04-25T10:17:20;5.30;;;3.10;;
20456;SDS011;10387;51.102;6.848;2023-04-25T10:19:47;5.17;;;2.67;;
20456;SDS011;10387;51.102;6.848;2023-04-25T10:24:39;5.50;;;2.53;;
20456;SDS011;10387;51.102;6.848;2023-04-25T10:27:06;6.73;;;2.40;;
20456;SDS011;10387;51.102;6.848;2023-04-25T10:29:33;4.67;;;2.47;;
20456;SDS011;10387;51.102;6.848;2023-04-25T10:31:59;4.87;;;2.30;;
20456;SDS011;10387;51.102;6.848;2023-04-25T10:34:41;7.73;;;2.47;;
20456;SDS011;10387;51.102;6.848;2023-04-25T10:37:11;3.23;;;1.70;;
20456;SDS011;10387;51.102;6.848;2023-04-25T10:39:40;7.40;;;2.30;;
20456;SDS011;10387;51.102;6.848;2023-04-25T10:42:07;3.70;;;2.57;;
20456;SDS011;10387;51.102;6.848;2023-04-25T10:44:33;5.60;;;1.90;;
20456;SDS011;10387;51.102;6.848;2023-04-25T10:47:01;5.20;;;2.40;;
20456;SDS011;10387;51.102;6.848;2023-04-25T10:49:29;3.53;;;1.87;;
20456;SDS011;10387;51.102;6.848;2023-04-25T10:52:16;4.47;;;2.30;;
20456;SDS011;10387;51.102;6.848;2023-04-25T10:54:43;3.87;;;2.17;;
20456;SDS011;10387;51.102;6.848;2023-04-25T11:00:00;5.57;;;2.20;;
20456;SDS011;10387;51.102;6.848;2023-04-25T11:02:30;3.53;;;1.90;;
20456;SDS011;10387;51.102;6.848;2023-04-25T11:04:56;6.03;;;2.23;;
20456;SDS011;10387;51.102;6.848;2023-04-25T11:07:33;7.00;;;2.37;;
20456;SDS011;10387;51.102;6.848;2023-04-25T11:10:01;6.33;;;2.13;;
20456;SDS011;10387;51.102;6.848;2023-04-25T11:12:27;3.20;;;2.43;;
20456;SDS011;10387;51.102;6.848;2023-04-25T11:15:05;3.83;;;2.13;;
20456;SDS011;10387;51.102;6.848;2023-04-25T11:17:31;7.80;;;2.30;;
20456;SDS011;10387;51.102;6.848;2023-04-25T11:19:58;5.77;;;2.33;;
20456;SDS011;10387;51.102;6.848;2023-04-25T11:22:24;5.67;;;2.27;;
20456;SDS011;10387;51.102;6.848;2023-04-25T11:24:50;2.20;;;1.80;;
20456;SDS011;10387;51.102;6.848;2023-04-25T11:27:17;3.80;;;2.33;;
20456;SDS011;10387;51.102;6.848;2023-04-25T11:29:44;5.50;;;2.07;;
20456;SDS011;10387;51.102;6.848;2023-04-25T11:32:14;3.37;;;2.00;;
20456;SDS011;10387;51.102;6.848;2023-04-25T11:34:42;3.53;;;1.80;;
20456;SDS011;10387;51.102;6.848;2023-04-25T11:37:08;4.07;;;2.20;;
20456;SDS011;10387;51.102;6.848;2023-04-25T11:39:36;4.03;;;1.70;;
20456;SDS011;10387;51.102;6.848;2023-04-25T11:42:03;4.07;;;1.70;;
20456;SDS011;10387;51.102;6.848;2023-04-25T11:44:30;2.10;;;1.83;;
20456;SDS011;10387;51.102;6.848;2023-04-25T11:46:57;3.63;;;2.00;;
20456;SDS011;10387;51.102;6.848;2023-04-25T11:49:23;4.97;;;2.10;;
20456;SDS011;10387;51.102;6.848;2023-04-25T11:51:49;5.13;;;2.47;;
20456;SDS011;10387;51.102;6.848;2023-04-25T11:54:16;5.30;;;2.30;;
20456;SDS011;10387;51.102;6.848;2023-04-25T11:56:42;3.53;;;1.97;;
20456;SDS011;10387;51.102;6.848;2023-04-25T11:59:09;5.23;;;2.33;;
20456;SDS011;10387;51.102;6.848;2023-04-25T12:01:36;5.40;;;1.90;;
20456;SDS011;10387;51.102;6.848;2023-04-25T12:04:22;3.10;;;2.10;;
20456;SDS011;10387;51.102;6.848;2023-04-25T12:06:50;5.37;;;2.27;;
20456;SDS011;10387;51.102;6.848;2023-04-25T12:09:17;4.90;;;1.90;;
20456;SDS011;10387;51.102;6.848;2023-04-25T12:11:44;9.67;;;2.23;;
20456;SDS011;10387;51.102;6.848;2023-04-25T12:14:11;3.93;;;1.97;;
20456;SDS011;10387;51.102;6.848;2023-04-25T12:16:44;4.00;;;2.13;;
20456;SDS011;10387;51.102;6.848;2023-04-25T12:19:13;5.80;;;2.60;;
20456;SDS011;10387;51.102;6.848;2023-04-25T12:21:40;5.30;;;2.30;;
20456;SDS011;10387;51.102;6.848;2023-04-25T12:24:13;3.90;;;2.60;;
20456;SDS011;10387;51.102;6.848;2023-04-25T12:26:49;4.83;;;2.20;;
20456;SDS011;10387;51.102;6.848;2023-04-25T12:29:19;4.00;;;2.37;;
20456;SDS011;10387;51.102;6.848;2023-04-25T12:31:46;5.87;;;2.60;;
20456;SDS011;10387;51.102;6.848;2023-04-25T12:34:12;4.87;;;2.47;;
20456;SDS011;10387;51.102;6.848;2023-04-25T12:36:38;5.93;;;2.50;;
20456;SDS011;10387;51.102;6.848;2023-04-25T12:39:05;5.33;;;2.70;;
20456;SDS011;10387;51.102;6.848;2023-04-25T12:41:32;6.40;;;3.07;;
20456;SDS011;10387;51.102;6.848;2023-04-25T12:43:58;5.93;;;2.60;;
20456;SDS011;10387;51.102;6.848;2023-04-25T12:46:24;4.43;;;2.43;;
20456;SDS011;10387;51.102;6.848;2023-04-25T12:48:50;5.00;;;2.50;;
20456;SDS011;10387;51.102;6.848;2023-04-25T12:51:16;5.27;;;2.20;;
20456;SDS011;10387;51.102;6.848;2023-04-25T12:53:42;4.10;;;2.33;;
20456;SDS011;10387;51.102;6.848;2023-04-25T12:56:08;5.30;;;2.40;;
20456;SDS011;10387;51.102;6.848;2023-04-25T12:58:34;5.03;;;2.43;;
20456;SDS011;10387;51.102;6.848;2023-04-25T13:01:01;2.97;;;2.00;;
20456;SDS011;10387;51.102;6.848;2023-04-25T13:03:27;4.10;;;2.13;;
20456;SDS011;10387;51.102;6.848;2023-04-25T13:05:53;5.03;;;2.50;;
20456;SDS011;10387;51.102;6.848;2023-04-25T13:08:19;3.90;;;2.17;;
20456;SDS011;10387;51.102;6.848;2023-04-25T13:10:46;3.27;;;2.00;;
20456;SDS011;10387;51.102;6.848;2023-04-25T13:13:13;7.53;;;4.80;;
20456;SDS011;10387;51.102;6.848;2023-04-25T13:15:39;8.17;;;4.87;;
20456;SDS011;10387;51.102;6.848;2023-04-25T13:18:05;6.23;;;4.23;;
20456;SDS011;10387;51.102;6.848;2023-04-25T13:20:31;8.07;;;4.90;;
20456;SDS011;10387;51.102;6.848;2023-04-25T13:22:58;8.10;;;4.20;;
20456;SDS011;10387;51.102;6.848;2023-04-25T13:25:24;5.80;;;3.53;;
20456;SDS011;10387;51.102;6.848;2023-04-25T13:27:50;5.63;;;3.70;;
20456;SDS011;10387;51.102;6.848;2023-04-25T13:30:17;6.40;;;3.77;;
20456;SDS011;10387;51.102;6.848;2023-04-25T13:32:43;7.63;;;3.97;;
20456;SDS011;10387;51.102;6.848;2023-04-25T13:35:10;6.73;;;3.23;;
20456;SDS011;10387;51.102;6.848;2023-04-25T13:37:37;7.17;;;3.77;;
20456;SDS011;10387;51.102;6.848;2023-04-25T13:40:04;3.27;;;2.50;;
20456;SDS011;10387;51.102;6.848;2023-04-25T13:42:31;5.90;;;2.50;;
20456;SDS011;10387;51.102;6.848;2023-04-25T13:44:57;6.73;;;2.53;;
20456;SDS011;10387;51.102;6.848;2023-04-25T13:47:25;4.17;;;2.67;;
20456;SDS011;10387;51.102;6.848;2023-04-25T13:49:51;4.27;;;2.80;;
20456;SDS011;10387;51.102;6.848;2023-04-25T13:52:17;5.30;;;2.60;;
20456;SDS011;10387;51.102;6.848;2023-04-25T13:54:43;6.30;;;2.20;;
20456;SDS011;10387;51.102;6.848;2023-04-25T13:57:10;3.20;;;1.93;;
20456;SDS011;10387;51.102;6.848;2023-04-25T13:59:36;2.90;;;1.60;;
20456;SDS011;10387;51.102;6.848;2023-04-25T14:02:02;4.23;;;1.70;;
20456;SDS011;10387;51.102;6.848;2023-04-25T14:04:29;2.37;;;1.33;;
20456;SDS011;10387;51.102;6.848;2023-04-25T14:06:55;4.20;;;1.40;;
20456;SDS011;10387;51.102;6.848;2023-04-25T14:09:21;2.10;;;1.50;;
20456;SDS011;10387;51.102;6.848;2023-04-25T14:11:54;2.73;;;1.30;;
20456;SDS011;10387;51.102;6.848;2023-04-25T14:14:20;2.43;;;1.13;;
20456;SDS011;10387;51.102;6.848;2023-04-25T14:16:46;3.83;;;1.60;;
20456;SDS011;10387;51.102;6.848;2023-04-25T14:19:13;3.63;;;1.40;;
20456;SDS011;10387;51.102;6.848;2023-04-25T14:21:40;5.33;;;1.70;;
20456;SDS011;10387;51.102;6.848;2023-04-25T14:24:06;2.37;;;1.43;;
20456;SDS011;10387;51.102;6.848;2023-04-25T14:26:35;4.10;;;2.00;;
20456;SDS011;10387;51.102;6.848;2023-04-25T14:29:02;2.10;;;1.70;;
20456;SDS011;10387;51.102;6.848;2023-04-25T14:31:28;3.23;;;2.10;;
20456;SDS011;10387;51.102;6.848;2023-04-25T14:33:54;3.43;;;1.63;;
20456;SDS011;10387;51.102;6.848;2023-04-25T14:36:20;2.30;;;1.90;;
20456;SDS011;10387;51.102;6.848;2023-04-25T14:38:46;3.70;;;2.30;;
20456;SDS011;10387;51.102;6.848;2023-04-25T14:41:13;3.57;;;2.13;;
20456;SDS011;10387;51.102;6.848;2023-04-25T14:43:39;4.40;;;2.23;;
20456;SDS011;10387;51.102;6.848;2023-04-25T14:46:06;5.30;;;2.17;;
20456;SDS011;10387;51.102;6.848;2023-04-25T14:48:32;4.40;;;2.27;;
20456;SDS011;10387;51.102;6.848;2023-04-25T14:50:59;3.57;;;2.30;;
20456;SDS011;10387;51.102;6.848;2023-04-25T14:53:25;5.10;;;2.33;;
20456;SDS011;10387;51.102;6.848;2023-04-25T14:55:52;5.37;;;2.37;;
20456;SDS011;10387;51.102;6.848;2023-04-25T14:58:18;5.23;;;2.33;;
20456;SDS011;10387;51.102;6.848;2023-04-25T15:00:45;3.50;;;2.20;;